createdAt,value
2023-01-17T00:00:07.736Z,4.30
2023-01-17T00:00:17.840Z,4.40
2023-01-17T00:00:27.719Z,4.20
2023-01-17T00:00:37.695Z,4.30
2023-01-17T00:00:47.673Z,4.70
2023-01-17T00:00:57.677Z,4.50
2023-01-17T00:01:07.692Z,4.40
2023-01-17T00:01:17.675Z,3.70
2023-01-17T00:01:27.692Z,4.00
2023-01-17T00:01:38.567Z,4.20
2023-01-17T00:01:47.693Z,4.40
2023-01-17T00:01:57.725Z,4.00
2023-01-17T00:02:07.666Z,4.10
2023-01-17T00:02:17.784Z,4.20
2023-01-17T00:02:27.689Z,4.70
2023-01-17T00:02:38.607Z,4.60
2023-01-17T00:02:47.700Z,5.20
2023-01-17T00:02:57.709Z,5.40
2023-01-17T00:03:07.664Z,5.40
2023-01-17T00:03:18.125Z,4.90
2023-01-17T00:03:27.728Z,4.50
2023-01-17T00:03:37.714Z,4.30
2023-01-17T00:03:47.717Z,4.50
2023-01-17T00:03:57.698Z,4.60
2023-01-17T00:04:07.803Z,4.70
2023-01-17T00:04:17.659Z,4.60
2023-01-17T00:04:27.657Z,4.60
2023-01-17T00:04:37.679Z,5.20
2023-01-17T00:04:47.749Z,4.90
2023-01-17T00:04:57.660Z,4.90
2023-01-17T00:05:07.672Z,4.60
2023-01-17T00:05:17.652Z,5.10
2023-01-17T00:05:27.654Z,4.80
2023-01-17T00:05:37.678Z,4.80
2023-01-17T00:05:47.713Z,4.40
2023-01-17T00:05:57.647Z,4.80
2023-01-17T00:06:07.707Z,5.10
2023-01-17T00:06:17.649Z,5.30
2023-01-17T00:06:28.578Z,5.00
2023-01-17T00:06:37.657Z,4.70
2023-01-17T00:06:47.650Z,4.40
2023-01-17T00:06:57.678Z,5.00
2023-01-17T00:07:07.644Z,5.20
2023-01-17T00:07:17.653Z,5.20
2023-01-17T00:07:27.666Z,4.60
2023-01-17T00:07:37.765Z,4.20
2023-01-17T00:07:47.677Z,4.20
2023-01-17T00:07:57.666Z,4.20
2023-01-17T00:08:07.655Z,5.00
2023-01-17T00:08:17.683Z,4.90
2023-01-17T00:08:27.728Z,5.00
2023-01-17T00:08:37.650Z,4.60
2023-01-17T00:08:47.646Z,5.00
2023-01-17T00:08:57.703Z,5.30
2023-01-17T00:09:07.660Z,5.20
2023-01-17T00:09:17.633Z,4.90
2023-01-17T00:09:27.639Z,4.80
2023-01-17T00:09:37.643Z,5.00
2023-01-17T00:09:47.646Z,5.00
2023-01-17T00:09:57.640Z,4.50
2023-01-17T00:10:07.638Z,4.00
2023-01-17T00:10:17.677Z,4.20
2023-01-17T00:10:27.665Z,4.40
2023-01-17T00:10:37.635Z,4.70
2023-01-17T00:10:47.643Z,4.80
2023-01-17T00:10:57.638Z,5.10
2023-01-17T00:11:07.633Z,5.10
2023-01-17T00:11:17.625Z,4.80
2023-01-17T00:11:27.709Z,4.80
2023-01-17T00:11:40.660Z,4.60
2023-01-17T00:11:47.636Z,5.30
2023-01-17T00:11:57.644Z,6.60
2023-01-17T00:12:07.631Z,6.70
2023-01-17T00:12:17.666Z,4.90
2023-01-17T00:12:27.653Z,4.30
2023-01-17T00:12:37.624Z,4.50
2023-01-17T00:12:47.646Z,4.40
2023-01-17T00:12:57.648Z,4.60
2023-01-17T00:13:08.569Z,4.60
2023-01-17T00:13:17.676Z,4.60
2023-01-17T00:13:28.570Z,4.60
2023-01-17T00:13:37.701Z,4.60
2023-01-17T00:13:47.625Z,4.90
2023-01-17T00:13:57.619Z,6.00
2023-01-17T00:14:07.632Z,5.70
2023-01-17T00:14:17.623Z,5.60
2023-01-17T00:14:27.624Z,4.50
2023-01-17T00:14:37.625Z,4.70
2023-01-17T00:14:47.623Z,4.50
2023-01-17T00:14:57.615Z,4.90
2023-01-17T00:15:07.619Z,5.00
2023-01-17T00:15:17.644Z,5.00
2023-01-17T00:15:27.632Z,4.70
2023-01-17T00:15:37.616Z,4.50
2023-01-17T00:15:47.639Z,4.20
2023-01-17T00:15:57.698Z,4.30
2023-01-17T00:16:07.682Z,4.40
2023-01-17T00:16:17.629Z,4.50
2023-01-17T00:16:27.644Z,4.70
2023-01-17T00:16:37.626Z,4.80
2023-01-17T00:16:47.604Z,4.70
2023-01-17T00:16:57.607Z,4.70
2023-01-17T00:17:07.666Z,4.50
2023-01-17T00:17:17.635Z,4.50
2023-01-17T00:17:27.616Z,4.40
2023-01-17T00:17:37.716Z,4.50
2023-01-17T00:17:47.610Z,4.70
2023-01-17T00:17:57.605Z,4.90
2023-01-17T00:18:07.641Z,5.20
2023-01-17T00:18:17.696Z,5.30
2023-01-17T00:18:27.601Z,5.10
2023-01-17T00:18:37.600Z,4.90
2023-01-17T00:18:47.662Z,4.80
2023-01-17T00:18:57.599Z,4.80
2023-01-17T00:19:07.596Z,4.70
2023-01-17T00:19:17.605Z,4.40
2023-01-17T00:19:28.567Z,4.40
2023-01-17T00:19:37.593Z,4.60
2023-01-17T00:19:48.583Z,4.80
2023-01-17T00:19:57.611Z,4.80
2023-01-17T00:20:07.645Z,4.90
2023-01-17T00:20:20.036Z,4.80
2023-01-17T00:20:27.611Z,4.80
2023-01-17T00:20:37.599Z,4.50
2023-01-17T00:20:47.607Z,5.10
2023-01-17T00:20:57.610Z,7.60
2023-01-17T00:21:07.585Z,7.70
2023-01-17T00:21:18.563Z,5.00
2023-01-17T00:21:27.605Z,4.80
2023-01-17T00:21:37.590Z,4.90
2023-01-17T00:21:47.616Z,4.90
2023-01-17T00:21:57.595Z,4.60
2023-01-17T00:22:07.591Z,4.10
2023-01-17T00:22:17.590Z,4.60
2023-01-17T00:22:27.581Z,4.50
2023-01-17T00:22:37.600Z,4.50
2023-01-17T00:22:47.600Z,4.00
2023-01-17T00:22:57.577Z,4.30
2023-01-17T00:23:07.605Z,4.60
2023-01-17T00:23:17.585Z,4.80
2023-01-17T00:23:28.570Z,4.80
2023-01-17T00:23:37.587Z,4.40
2023-01-17T00:23:47.586Z,4.60
2023-01-17T00:23:57.628Z,4.70
2023-01-17T00:24:07.573Z,4.80
2023-01-17T00:24:18.628Z,4.40
2023-01-17T00:24:27.726Z,4.30
2023-01-17T00:24:37.573Z,4.50
2023-01-17T00:24:47.614Z,5.00
2023-01-17T00:24:57.572Z,5.20
2023-01-17T00:25:07.671Z,5.10
2023-01-17T00:25:17.587Z,5.00
2023-01-17T00:25:27.588Z,5.20
2023-01-17T00:25:37.582Z,5.30
2023-01-17T00:25:47.567Z,5.80
2023-01-17T00:25:57.609Z,5.50
2023-01-17T00:26:07.577Z,5.10
2023-01-17T00:26:17.566Z,4.80
2023-01-17T00:26:27.801Z,4.90
2023-01-17T00:26:37.563Z,5.10
2023-01-17T00:26:47.578Z,4.90
2023-01-17T00:26:57.561Z,4.70
2023-01-17T00:27:07.636Z,4.60
2023-01-17T00:27:17.563Z,5.00
2023-01-17T00:27:27.558Z,5.10
2023-01-17T00:27:37.563Z,5.00
2023-01-17T00:27:47.574Z,4.70
2023-01-17T00:27:57.576Z,4.80
2023-01-17T00:28:07.568Z,5.10
2023-01-17T00:28:17.570Z,5.10
2023-01-17T00:28:27.614Z,4.80
2023-01-17T00:28:37.557Z,4.50
2023-01-17T00:28:47.585Z,4.70
2023-01-17T00:28:57.557Z,4.90
2023-01-17T00:29:07.592Z,5.10
2023-01-17T00:29:17.576Z,5.00
2023-01-17T00:29:27.555Z,4.80
2023-01-17T00:29:37.604Z,4.40
2023-01-17T00:29:47.562Z,4.30
2023-01-17T00:29:57.609Z,4.40
2023-01-17T00:30:07.548Z,4.50
2023-01-17T00:30:17.594Z,4.80
2023-01-17T00:30:27.563Z,4.70
2023-01-17T00:30:40.167Z,5.00
2023-01-17T00:30:47.544Z,5.20
2023-01-17T00:30:57.550Z,5.30
2023-01-17T00:31:07.631Z,4.90
2023-01-17T00:31:17.610Z,4.20
2023-01-17T00:31:28.154Z,3.90
2023-01-17T00:31:37.632Z,4.40
2023-01-17T00:31:47.635Z,4.50
2023-01-17T00:31:58.096Z,4.50
2023-01-17T00:32:07.555Z,4.40
2023-01-17T00:32:17.544Z,4.50
2023-01-17T00:32:27.545Z,4.50
2023-01-17T00:32:37.559Z,4.60
2023-01-17T00:32:47.545Z,4.70
2023-01-17T00:32:57.538Z,4.80
2023-01-17T00:33:07.560Z,5.10
2023-01-17T00:33:17.554Z,5.00
2023-01-17T00:33:27.535Z,5.10
2023-01-17T00:33:37.536Z,5.30
2023-01-17T00:33:47.560Z,5.40
2023-01-17T00:33:57.541Z,5.00
2023-01-17T00:34:07.609Z,4.80
2023-01-17T00:34:17.575Z,5.10
2023-01-17T00:34:28.067Z,5.70
2023-01-17T00:34:37.534Z,5.60
2023-01-17T00:34:47.555Z,5.10
2023-01-17T00:35:00.117Z,4.60
2023-01-17T00:35:07.527Z,4.90
2023-01-17T00:35:17.529Z,5.20
2023-01-17T00:35:28.106Z,5.50
2023-01-17T00:35:37.521Z,5.00
2023-01-17T00:35:47.528Z,4.80
2023-01-17T00:35:57.574Z,4.60
2023-01-17T00:36:07.531Z,4.60
2023-01-17T00:36:17.534Z,4.40
2023-01-17T00:36:27.565Z,4.60
2023-01-17T00:36:37.526Z,4.70
2023-01-17T00:36:47.520Z,4.90
2023-01-17T00:36:57.522Z,4.70
2023-01-17T00:37:07.522Z,4.80
2023-01-17T00:37:17.527Z,4.80
2023-01-17T00:37:27.516Z,5.20
2023-01-17T00:37:37.544Z,5.20
2023-01-17T00:37:47.531Z,5.40
2023-01-17T00:37:57.523Z,5.30
2023-01-17T00:38:07.514Z,5.70
2023-01-17T00:38:17.584Z,5.60
2023-01-17T00:38:27.532Z,5.90
2023-01-17T00:38:37.533Z,5.50
2023-01-17T00:38:47.536Z,5.20
2023-01-17T00:38:57.518Z,4.80
2023-01-17T00:39:07.527Z,5.00
2023-01-17T00:39:18.069Z,5.40
2023-01-17T00:39:27.548Z,5.70
2023-01-17T00:39:37.535Z,6.00
2023-01-17T00:39:47.511Z,5.60
2023-01-17T00:39:57.547Z,5.30
2023-01-17T00:40:07.512Z,4.80
2023-01-17T00:40:17.537Z,4.90
2023-01-17T00:40:27.505Z,4.90
2023-01-17T00:40:38.076Z,5.00
2023-01-17T00:40:47.559Z,5.80
2023-01-17T00:40:57.499Z,5.90
2023-01-17T00:41:07.527Z,5.90
2023-01-17T00:41:17.500Z,5.10
2023-01-17T00:41:27.505Z,4.90
2023-01-17T00:41:37.520Z,5.00
2023-01-17T00:41:47.530Z,5.30
2023-01-17T00:41:57.495Z,5.60
2023-01-17T00:42:07.505Z,5.40
2023-01-17T00:42:17.523Z,5.10
2023-01-17T00:42:27.513Z,4.80
2023-01-17T00:42:37.503Z,5.00
2023-01-17T00:42:47.509Z,5.30
2023-01-17T00:42:57.498Z,5.40
2023-01-17T00:43:07.497Z,5.40
2023-01-17T00:43:17.503Z,5.20
2023-01-17T00:43:27.500Z,5.00
2023-01-17T00:43:37.500Z,4.90
2023-01-17T00:43:48.082Z,5.10
2023-01-17T00:43:57.521Z,5.00
2023-01-17T00:44:07.501Z,5.00
2023-01-17T00:44:17.486Z,5.10
2023-01-17T00:44:27.518Z,5.30
2023-01-17T00:44:37.641Z,5.20
2023-01-17T00:44:47.527Z,5.00
2023-01-17T00:44:57.487Z,5.30
2023-01-17T00:45:07.492Z,5.20
2023-01-17T00:45:17.557Z,5.30
2023-01-17T00:45:27.489Z,5.00
2023-01-17T00:45:37.553Z,5.20
2023-01-17T00:45:47.488Z,5.40
2023-01-17T00:45:57.483Z,6.20
2023-01-17T00:46:07.483Z,6.40
2023-01-17T00:46:17.524Z,6.20
2023-01-17T00:46:27.537Z,5.50
2023-01-17T00:46:37.683Z,5.80
2023-01-17T00:46:47.497Z,5.50
2023-01-17T00:46:57.502Z,5.70
2023-01-17T00:47:07.490Z,5.50
2023-01-17T00:47:17.480Z,5.80
2023-01-17T00:47:27.504Z,5.90
2023-01-17T00:47:37.484Z,6.70
2023-01-17T00:47:47.470Z,6.90
2023-01-17T00:47:57.481Z,6.70
2023-01-17T00:48:07.473Z,5.60
2023-01-17T00:48:17.483Z,5.00
2023-01-17T00:48:27.501Z,5.00
2023-01-17T00:48:37.478Z,5.10
2023-01-17T00:48:47.472Z,5.50
2023-01-17T00:48:57.470Z,5.40
2023-01-17T00:49:07.475Z,5.70
2023-01-17T00:49:17.472Z,5.50
2023-01-17T00:49:27.500Z,5.30
2023-01-17T00:49:37.479Z,5.10
2023-01-17T00:49:47.553Z,7.10
2023-01-17T00:49:57.463Z,7.30
2023-01-17T00:50:07.478Z,5.50
2023-01-17T00:50:17.465Z,5.50
2023-01-17T00:50:28.075Z,5.10
2023-01-17T00:50:37.468Z,5.30
2023-01-17T00:50:47.469Z,4.90
2023-01-17T00:50:57.484Z,5.00
2023-01-17T00:51:07.466Z,4.70
2023-01-17T00:51:17.460Z,4.80
2023-01-17T00:51:27.455Z,4.80
2023-01-17T00:51:37.463Z,5.10
2023-01-17T00:51:47.492Z,5.00
2023-01-17T00:51:57.468Z,5.80
2023-01-17T00:52:07.459Z,5.70
2023-01-17T00:52:17.541Z,6.40
2023-01-17T00:52:27.461Z,6.10
2023-01-17T00:52:37.457Z,6.10
2023-01-17T00:52:47.585Z,5.30
2023-01-17T00:52:57.456Z,5.20
2023-01-17T00:53:07.459Z,4.80
2023-01-17T00:53:17.455Z,5.00
2023-01-17T00:53:27.447Z,5.50
2023-01-17T00:53:37.463Z,5.80
2023-01-17T00:53:47.444Z,5.60
2023-01-17T00:53:57.446Z,5.10
2023-01-17T00:54:07.484Z,5.20
2023-01-17T00:54:19.001Z,5.10
2023-01-17T00:54:27.448Z,5.20
2023-01-17T00:54:37.460Z,4.80
2023-01-17T00:54:47.449Z,5.10
2023-01-17T00:54:57.521Z,5.90
2023-01-17T00:55:07.455Z,5.90
2023-01-17T00:55:17.446Z,7.20
2023-01-17T00:55:27.436Z,5.30
2023-01-17T00:55:37.451Z,5.90
2023-01-17T00:55:47.589Z,5.50
2023-01-17T00:55:57.437Z,5.50
2023-01-17T00:56:07.435Z,5.00
2023-01-17T00:56:17.433Z,5.20
2023-01-17T00:56:27.497Z,5.30
2023-01-17T00:56:37.448Z,5.70
2023-01-17T00:56:47.435Z,5.30
2023-01-17T00:56:57.443Z,5.20
2023-01-17T00:57:07.436Z,5.20
2023-01-17T00:57:17.435Z,5.10
2023-01-17T00:57:27.443Z,5.20
2023-01-17T00:57:37.432Z,5.10
2023-01-17T00:57:47.461Z,5.20
2023-01-17T00:57:57.464Z,4.90
2023-01-17T00:58:07.425Z,4.70
2023-01-17T00:58:17.433Z,5.30
2023-01-17T00:58:27.435Z,5.80
2023-01-17T00:58:37.428Z,6.10
2023-01-17T00:58:47.424Z,5.80
2023-01-17T00:58:57.422Z,6.10
2023-01-17T00:59:07.425Z,6.10
2023-01-17T00:59:17.477Z,5.30
2023-01-17T00:59:27.429Z,5.40
2023-01-17T00:59:37.437Z,5.30
2023-01-17T00:59:47.419Z,5.00
2023-01-17T00:59:57.423Z,5.00
2023-01-17T01:00:07.467Z,5.40
2023-01-17T01:00:17.525Z,5.80
2023-01-17T01:00:27.424Z,5.80
2023-01-17T01:00:37.522Z,5.30
2023-01-17T01:00:47.600Z,5.00
2023-01-17T01:00:57.480Z,5.10
2023-01-17T01:01:07.546Z,4.90
2023-01-17T01:01:17.554Z,4.90
2023-01-17T01:01:27.585Z,4.60
2023-01-17T01:01:37.664Z,5.10
2023-01-17T01:01:47.600Z,5.90
2023-01-17T01:01:57.733Z,6.00
2023-01-17T01:02:07.569Z,6.10
2023-01-17T01:02:18.133Z,5.90
2023-01-17T01:02:28.570Z,5.80
2023-01-17T01:02:37.607Z,5.40
2023-01-17T01:02:48.133Z,4.70
2023-01-17T01:02:57.418Z,4.80
2023-01-17T01:03:07.412Z,5.20
2023-01-17T01:03:17.412Z,5.40
2023-01-17T01:03:27.457Z,5.10
2023-01-17T01:03:37.403Z,4.90
2023-01-17T01:03:47.407Z,4.70
2023-01-17T01:03:57.408Z,5.00
2023-01-17T01:04:07.427Z,4.80
2023-01-17T01:04:17.467Z,4.70
2023-01-17T01:04:27.399Z,4.80
2023-01-17T01:04:37.399Z,5.00
2023-01-17T01:04:47.425Z,5.60
2023-01-17T01:04:57.404Z,5.10
2023-01-17T01:05:07.404Z,5.20
2023-01-17T01:05:17.652Z,6.50
2023-01-17T01:05:27.408Z,8.90
2023-01-17T01:05:37.426Z,6.50
2023-01-17T01:05:47.429Z,4.90
2023-01-17T01:05:57.403Z,4.50
2023-01-17T01:06:07.390Z,4.70
2023-01-17T01:06:17.478Z,4.70
2023-01-17T01:06:27.500Z,4.90
2023-01-17T01:06:37.400Z,5.00
2023-01-17T01:06:47.387Z,5.30
2023-01-17T01:06:57.403Z,5.10
2023-01-17T01:07:07.446Z,4.90
2023-01-17T01:07:17.393Z,4.60
2023-01-17T01:07:27.481Z,4.70
2023-01-17T01:07:37.426Z,4.80
2023-01-17T01:07:47.385Z,4.90
2023-01-17T01:07:57.394Z,5.00
2023-01-17T01:08:07.540Z,5.20
2023-01-17T01:08:17.404Z,5.20
2023-01-17T01:08:27.381Z,5.60
2023-01-17T01:08:37.404Z,5.40
2023-01-17T01:08:47.388Z,5.20
2023-01-17T01:08:57.388Z,5.00
2023-01-17T01:09:07.384Z,4.50
2023-01-17T01:09:17.450Z,4.30
2023-01-17T01:09:27.483Z,4.40
2023-01-17T01:09:38.096Z,5.10
2023-01-17T01:09:47.509Z,5.20
2023-01-17T01:09:57.383Z,4.90
2023-01-17T01:10:07.385Z,5.00
2023-01-17T01:10:17.416Z,5.20
2023-01-17T01:10:27.447Z,5.40
2023-01-17T01:10:37.373Z,5.30
2023-01-17T01:10:47.376Z,5.10
2023-01-17T01:10:57.383Z,5.20
2023-01-17T01:11:07.372Z,5.00
2023-01-17T01:11:17.376Z,5.00
2023-01-17T01:11:27.391Z,4.70
2023-01-17T01:11:37.368Z,4.90
2023-01-17T01:11:47.398Z,6.30
2023-01-17T01:11:57.383Z,6.30
2023-01-17T01:12:07.372Z,6.70
2023-01-17T01:12:17.375Z,4.40
2023-01-17T01:12:27.391Z,4.60
2023-01-17T01:12:37.387Z,4.50
2023-01-17T01:12:47.368Z,4.50
2023-01-17T01:12:57.374Z,4.70
2023-01-17T01:13:07.377Z,4.70
2023-01-17T01:13:17.380Z,4.40
2023-01-17T01:13:27.369Z,4.30
2023-01-17T01:13:37.361Z,4.30
2023-01-17T01:13:47.370Z,4.50
2023-01-17T01:13:57.357Z,4.50
2023-01-17T01:14:07.358Z,4.50
2023-01-17T01:14:17.355Z,4.50
2023-01-17T01:14:27.369Z,4.50
2023-01-17T01:14:37.412Z,4.50
2023-01-17T01:14:47.435Z,4.40
2023-01-17T01:14:58.077Z,4.40
2023-01-17T01:15:07.355Z,4.60
2023-01-17T01:15:17.372Z,4.50
2023-01-17T01:15:27.364Z,4.10
2023-01-17T01:15:37.397Z,3.60
2023-01-17T01:15:47.369Z,3.80
2023-01-17T01:15:57.413Z,4.10
2023-01-17T01:16:07.438Z,4.00
2023-01-17T01:16:17.423Z,3.90
2023-01-17T01:16:27.384Z,4.00
2023-01-17T01:16:37.467Z,3.90
2023-01-17T01:16:47.350Z,4.00
2023-01-17T01:16:57.343Z,4.60
2023-01-17T01:17:07.358Z,4.70
2023-01-17T01:17:17.461Z,4.70
2023-01-17T01:17:27.380Z,3.90
2023-01-17T01:17:37.440Z,3.70
2023-01-17T01:17:47.345Z,4.00
2023-01-17T01:17:57.347Z,4.10
2023-01-17T01:18:07.358Z,4.50
2023-01-17T01:18:17.349Z,4.20
2023-01-17T01:18:27.340Z,4.10
2023-01-17T01:18:37.346Z,3.90
2023-01-17T01:18:47.374Z,4.00
2023-01-17T01:18:57.344Z,3.90
2023-01-17T01:19:07.343Z,3.70
2023-01-17T01:19:17.366Z,3.70
2023-01-17T01:19:27.349Z,3.80
2023-01-17T01:19:37.336Z,4.00
2023-01-17T01:19:47.363Z,3.80
2023-01-17T01:19:57.351Z,3.70
2023-01-17T01:20:07.342Z,3.30
2023-01-17T01:20:17.331Z,3.50
2023-01-17T01:20:27.331Z,3.30
2023-01-17T01:20:37.331Z,3.30
2023-01-17T01:20:47.402Z,3.20
2023-01-17T01:20:58.077Z,3.30
2023-01-17T01:21:07.353Z,3.10
2023-01-17T01:21:17.325Z,3.20
2023-01-17T01:21:27.349Z,3.60
2023-01-17T01:21:37.380Z,3.80
2023-01-17T01:21:47.323Z,3.80
2023-01-17T01:21:57.338Z,4.00
2023-01-17T01:22:07.343Z,4.00
2023-01-17T01:22:17.334Z,4.20
2023-01-17T01:22:27.347Z,3.60
2023-01-17T01:22:37.343Z,3.70
2023-01-17T01:22:47.331Z,3.20
2023-01-17T01:22:57.355Z,3.20
2023-01-17T01:23:07.320Z,3.40
2023-01-17T01:23:17.339Z,3.70
2023-01-17T01:23:27.323Z,4.00
2023-01-17T01:23:37.321Z,3.90
2023-01-17T01:23:47.320Z,3.80
2023-01-17T01:23:58.126Z,3.30
2023-01-17T01:24:07.317Z,4.10
2023-01-17T01:24:17.315Z,4.00
2023-01-17T01:24:27.319Z,4.10
2023-01-17T01:24:37.400Z,3.70
2023-01-17T01:24:47.310Z,3.20
2023-01-17T01:24:57.328Z,3.40
2023-01-17T01:25:07.322Z,3.50
2023-01-17T01:25:17.315Z,3.80
2023-01-17T01:25:27.335Z,3.90
2023-01-17T01:25:37.324Z,3.30
2023-01-17T01:25:48.086Z,3.20
2023-01-17T01:25:57.652Z,2.50
2023-01-17T01:26:07.318Z,2.90
2023-01-17T01:26:18.090Z,2.90
2023-01-17T01:26:27.311Z,3.10
2023-01-17T01:26:37.317Z,2.90
2023-01-17T01:26:47.327Z,2.80
2023-01-17T01:26:57.302Z,2.80
2023-01-17T01:27:07.409Z,3.00
2023-01-17T01:27:17.303Z,3.20
2023-01-17T01:27:27.304Z,3.10
2023-01-17T01:27:38.091Z,2.90
2023-01-17T01:27:47.309Z,2.70
2023-01-17T01:27:57.304Z,2.90
2023-01-17T01:28:07.378Z,3.00
2023-01-17T01:28:18.160Z,3.10
2023-01-17T01:28:28.129Z,3.10
2023-01-17T01:28:37.384Z,3.20
2023-01-17T01:28:47.300Z,3.10
2023-01-17T01:28:57.312Z,3.10
2023-01-17T01:29:07.301Z,2.80
2023-01-17T01:29:17.339Z,2.70
2023-01-17T01:29:27.417Z,2.30
2023-01-17T01:29:37.294Z,2.10
2023-01-17T01:29:47.293Z,2.20
2023-01-17T01:29:57.313Z,2.10
2023-01-17T01:30:07.295Z,2.50
2023-01-17T01:30:17.287Z,3.30
2023-01-17T01:30:27.297Z,3.40
2023-01-17T01:30:37.292Z,3.20
2023-01-17T01:30:47.293Z,2.40
2023-01-17T01:30:57.286Z,2.30
2023-01-17T01:31:07.481Z,1.80
2023-01-17T01:31:17.338Z,2.10
2023-01-17T01:31:27.284Z,2.10
2023-01-17T01:31:37.324Z,2.40
2023-01-17T01:31:47.342Z,2.20
2023-01-17T01:31:57.309Z,2.30
2023-01-17T01:32:07.363Z,2.30
2023-01-17T01:32:17.300Z,2.40
2023-01-17T01:32:27.315Z,2.20
2023-01-17T01:32:37.278Z,2.00
2023-01-17T01:32:47.370Z,1.70
2023-01-17T01:32:57.284Z,2.00
2023-01-17T01:33:07.283Z,2.40
2023-01-17T01:33:17.281Z,3.00
2023-01-17T01:33:27.274Z,2.80
2023-01-17T01:33:37.274Z,2.60
2023-01-17T01:33:47.290Z,2.50
2023-01-17T01:33:57.280Z,2.80
2023-01-17T01:34:07.376Z,2.80
2023-01-17T01:34:17.275Z,2.60
2023-01-17T01:34:28.078Z,2.40
2023-01-17T01:34:37.274Z,1.90
2023-01-17T01:34:47.275Z,1.70
2023-01-17T01:34:57.275Z,1.60
2023-01-17T01:35:07.278Z,1.80
2023-01-17T01:35:17.386Z,2.00
2023-01-17T01:35:27.280Z,2.40
2023-01-17T01:35:37.289Z,2.40
2023-01-17T01:35:47.270Z,2.50
2023-01-17T01:35:57.270Z,1.80
2023-01-17T01:36:07.268Z,1.80
2023-01-17T01:36:17.358Z,1.30
2023-01-17T01:36:27.283Z,1.40
2023-01-17T01:36:37.257Z,1.40
2023-01-17T01:36:47.273Z,2.00
2023-01-17T01:36:57.346Z,2.10
2023-01-17T01:37:07.264Z,1.90
2023-01-17T01:37:17.255Z,1.60
2023-01-17T01:37:27.261Z,1.70
2023-01-17T01:37:37.261Z,1.90
2023-01-17T01:37:47.263Z,2.30
2023-01-17T01:37:57.263Z,2.40
2023-01-17T01:38:07.257Z,2.90
2023-01-17T01:38:17.279Z,2.70
2023-01-17T01:38:27.286Z,2.60
2023-01-17T01:38:37.264Z,2.60
2023-01-17T01:38:47.255Z,2.70
2023-01-17T01:38:57.257Z,2.40
2023-01-17T01:39:07.255Z,2.10
2023-01-17T01:39:17.248Z,2.20
2023-01-17T01:39:28.135Z,2.40
2023-01-17T01:39:37.248Z,2.70
2023-01-17T01:39:47.254Z,2.60
2023-01-17T01:39:57.244Z,2.60
2023-01-17T01:40:07.252Z,2.30
2023-01-17T01:40:17.243Z,2.40
2023-01-17T01:40:27.271Z,2.40
2023-01-17T01:40:37.268Z,2.20
2023-01-17T01:40:47.253Z,2.00
2023-01-17T01:40:57.251Z,2.20
2023-01-17T01:41:07.316Z,2.20
2023-01-17T01:41:17.252Z,2.30
2023-01-17T01:41:28.089Z,2.20
2023-01-17T01:41:37.256Z,2.30
2023-01-17T01:41:47.252Z,2.20
2023-01-17T01:41:57.332Z,2.30
2023-01-17T01:42:07.238Z,2.40
2023-01-17T01:42:17.237Z,2.70
2023-01-17T01:42:27.240Z,2.60
2023-01-17T01:42:37.244Z,2.30
2023-01-17T01:42:47.261Z,2.20
2023-01-17T01:42:57.234Z,2.10
2023-01-17T01:43:07.232Z,2.00
2023-01-17T01:43:17.230Z,2.10
2023-01-17T01:43:27.242Z,2.20
2023-01-17T01:43:37.234Z,2.20
2023-01-17T01:43:47.246Z,1.90
2023-01-17T01:43:57.317Z,1.70
2023-01-17T01:44:07.237Z,1.80
2023-01-17T01:44:17.236Z,2.10
2023-01-17T01:44:27.238Z,2.20
2023-01-17T01:44:37.234Z,2.30
2023-01-17T01:44:47.298Z,2.10
2023-01-17T01:44:58.103Z,1.90
2023-01-17T01:45:07.244Z,1.70
2023-01-17T01:45:17.307Z,1.80
2023-01-17T01:45:27.326Z,2.20
2023-01-17T01:45:37.271Z,2.30
2023-01-17T01:45:47.384Z,2.40
2023-01-17T01:45:57.306Z,2.10
2023-01-17T01:46:07.233Z,2.10
2023-01-17T01:46:17.235Z,2.10
2023-01-17T01:46:27.236Z,2.40
2023-01-17T01:46:37.635Z,2.20
2023-01-17T01:46:47.217Z,2.30
2023-01-17T01:46:57.225Z,2.00
2023-01-17T01:47:07.232Z,2.20
2023-01-17T01:47:17.213Z,1.90
2023-01-17T01:47:27.221Z,1.80
2023-01-17T01:47:37.261Z,2.00
2023-01-17T01:47:47.258Z,2.30
2023-01-17T01:47:57.208Z,2.10
2023-01-17T01:48:08.160Z,1.70
2023-01-17T01:48:17.218Z,1.60
2023-01-17T01:48:27.217Z,1.60
2023-01-17T01:48:37.208Z,1.90
2023-01-17T01:48:47.212Z,1.90
2023-01-17T01:48:57.214Z,2.00
2023-01-17T01:49:07.211Z,3.80
2023-01-17T01:49:17.219Z,5.70
2023-01-17T01:49:27.218Z,5.70
2023-01-17T01:49:37.210Z,2.50
2023-01-17T01:49:47.218Z,1.90
2023-01-17T01:49:57.214Z,2.20
2023-01-17T01:50:07.204Z,2.20
2023-01-17T01:50:17.214Z,2.20
2023-01-17T01:50:27.219Z,1.80
2023-01-17T01:50:37.213Z,2.00
2023-01-17T01:50:47.259Z,2.00
2023-01-17T01:50:57.269Z,2.40
2023-01-17T01:51:07.198Z,2.10
2023-01-17T01:51:17.197Z,2.30
2023-01-17T01:51:27.224Z,2.00
2023-01-17T01:51:37.196Z,2.20
2023-01-17T01:51:47.272Z,2.20
2023-01-17T01:51:57.206Z,1.90
2023-01-17T01:52:07.194Z,1.90
2023-01-17T01:52:17.205Z,1.80
2023-01-17T01:52:27.365Z,1.80
2023-01-17T01:52:37.190Z,1.50
2023-01-17T01:52:47.203Z,1.40
2023-01-17T01:52:57.206Z,1.50
2023-01-17T01:53:07.267Z,1.40
2023-01-17T01:53:17.203Z,1.60
2023-01-17T01:53:27.263Z,1.70
2023-01-17T01:53:37.237Z,1.80
2023-01-17T01:53:47.253Z,1.90
2023-01-17T01:53:57.186Z,1.70
2023-01-17T01:54:07.288Z,2.00
2023-01-17T01:54:17.194Z,2.00
2023-01-17T01:54:27.196Z,1.80
2023-01-17T01:54:37.195Z,1.40
2023-01-17T01:54:47.178Z,1.20
2023-01-17T01:55:00.181Z,1.40
2023-01-17T01:55:08.147Z,1.50
2023-01-17T01:55:17.183Z,1.60
2023-01-17T01:55:27.187Z,1.40
2023-01-17T01:55:37.194Z,1.60
2023-01-17T01:55:47.268Z,1.50
2023-01-17T01:55:57.270Z,1.50
2023-01-17T01:56:07.171Z,1.30
2023-01-17T01:56:17.180Z,1.30
2023-01-17T01:56:27.196Z,1.30
2023-01-17T01:56:37.201Z,1.40
2023-01-17T01:56:47.178Z,1.50
2023-01-17T01:56:57.212Z,2.10
2023-01-17T01:57:07.171Z,2.10
2023-01-17T01:57:17.200Z,1.90
2023-01-17T01:57:27.198Z,3.20
2023-01-17T01:57:37.169Z,3.20
2023-01-17T01:57:47.177Z,3.30
2023-01-17T01:57:57.227Z,1.40
2023-01-17T01:58:07.174Z,1.50
2023-01-17T01:58:17.164Z,1.50
2023-01-17T01:58:27.181Z,1.50
2023-01-17T01:58:37.163Z,1.80
2023-01-17T01:58:47.180Z,1.80
2023-01-17T01:58:57.179Z,1.70
2023-01-17T01:59:07.167Z,1.60
2023-01-17T01:59:17.175Z,1.60
2023-01-17T01:59:27.185Z,1.70
2023-01-17T01:59:37.161Z,1.80
2023-01-17T01:59:47.159Z,1.40
2023-01-17T01:59:57.160Z,1.30
2023-01-17T02:00:07.183Z,1.10
2023-01-17T02:00:17.175Z,1.20
2023-01-17T02:00:27.167Z,1.30
2023-01-17T02:00:37.197Z,1.20
2023-01-17T02:00:47.446Z,1.20
2023-01-17T02:00:57.284Z,1.30
2023-01-17T02:01:07.311Z,1.50
2023-01-17T02:01:17.300Z,1.50
2023-01-17T02:01:27.354Z,1.80
2023-01-17T02:01:37.347Z,1.60
2023-01-17T02:01:47.271Z,1.60
2023-01-17T02:01:57.275Z,1.20
2023-01-17T02:02:07.676Z,1.30
2023-01-17T02:02:17.156Z,1.50
2023-01-17T02:02:27.147Z,3.80
2023-01-17T02:02:37.165Z,3.80
2023-01-17T02:02:47.168Z,3.70
2023-01-17T02:02:57.151Z,1.60
2023-01-17T02:03:07.154Z,1.50
2023-01-17T02:03:17.159Z,1.70
2023-01-17T02:03:27.348Z,1.50
2023-01-17T02:03:37.175Z,1.50
2023-01-17T02:03:47.187Z,1.20
2023-01-17T02:03:57.179Z,1.20
2023-01-17T02:04:07.191Z,1.30
2023-01-17T02:04:17.148Z,3.40
2023-01-17T02:04:27.139Z,3.40
2023-01-17T02:04:37.143Z,3.40
2023-01-17T02:04:47.152Z,1.40
2023-01-17T02:04:57.224Z,1.60
2023-01-17T02:05:07.152Z,1.60
2023-01-17T02:05:17.140Z,1.60
2023-01-17T02:05:27.135Z,1.50
2023-01-17T02:05:37.166Z,1.40
2023-01-17T02:05:47.142Z,1.30
2023-01-17T02:05:57.136Z,1.30
2023-01-17T02:06:07.135Z,1.50
2023-01-17T02:06:17.138Z,1.50
2023-01-17T02:06:27.137Z,1.40
2023-01-17T02:06:37.127Z,1.20
2023-01-17T02:06:47.152Z,1.20
2023-01-17T02:06:57.158Z,1.20
2023-01-17T02:07:07.225Z,1.30
2023-01-17T02:07:17.176Z,1.60
2023-01-17T02:07:27.163Z,1.50
2023-01-17T02:07:37.138Z,1.50
2023-01-17T02:07:47.131Z,1.10
2023-01-17T02:07:57.133Z,1.10
2023-01-17T02:08:07.123Z,1.10
2023-01-17T02:08:17.134Z,1.20
2023-01-17T02:08:27.137Z,1.20
2023-01-17T02:08:37.126Z,1.20
2023-01-17T02:08:47.135Z,1.00
2023-01-17T02:08:57.121Z,1.00
2023-01-17T02:09:07.184Z,0.90
2023-01-17T02:09:17.120Z,1.10
2023-01-17T02:09:27.121Z,1.10
2023-01-17T02:09:37.124Z,1.10
2023-01-17T02:09:47.123Z,0.90
2023-01-17T02:09:57.137Z,1.10
2023-01-17T02:10:07.112Z,1.20
2023-01-17T02:10:17.153Z,1.30
2023-01-17T02:10:27.136Z,1.20
2023-01-17T02:10:38.094Z,1.20
2023-01-17T02:10:47.228Z,1.50
2023-01-17T02:10:57.143Z,1.40
2023-01-17T02:11:07.107Z,1.30
2023-01-17T02:11:17.118Z,1.00
2023-01-17T02:11:27.112Z,1.00
2023-01-17T02:11:37.125Z,0.90
2023-01-17T02:11:47.115Z,1.10
2023-01-17T02:11:57.161Z,1.10
2023-01-17T02:12:07.103Z,1.30
2023-01-17T02:12:17.129Z,1.30
2023-01-17T02:12:27.200Z,1.30
2023-01-17T02:12:37.107Z,1.10
2023-01-17T02:12:47.098Z,1.10
2023-01-17T02:12:57.116Z,1.00
2023-01-17T02:13:07.109Z,1.20